Time;durP1;ratioP1;P1;durP2;ratioP2;P2;SDS_P1;SDS_P2;PMS_P1;PMS_P2;Temp;Humidity;BMP_temperature;BMP_pressure;BME280_temperature;BME280_humidity;BME280_pressure;Samples;Min_cycle;Max_cycle;Signal;HPM_P1;HPM_P2
2022/09/12 00:00:34;;;;;;;;;;;;;;;;;;5066296;28;47325;-78
2022/09/12 00:03:00;;;;;;;;;;;;;;;;;;5043658;28;45008;-78
2022/09/12 00:05:27;;;;;;;;;;;;;;;;;;5045105;28;47070;-78
2022/09/12 00:07:53;;;;;;;;;;;;;;;;;;5055090;28;46754;-78
2022/09/12 00:10:19;;;;;;;;;;;;;;;;;;5051779;28;42621;-78
2022/09/12 00:12:45;;;;;;;;;;;;;;;;;;5048616;28;47013;-77
2022/09/12 00:15:11;;;;;;;;;;;;;;;;;;5047649;28;42863;-78
2022/09/12 00:17:38;;;;;;;;;;;;;;;;;;5037892;28;45760;-78
2022/09/12 00:20:05;;;;;;;;;;;;;;;;;;5049183;28;49143;-78
2022/09/12 00:22:31;;;;;;;;;;;;;;;;;;5066818;28;43979;-78
2022/09/12 00:24:57;;;;;;;;;;;;;;;;;;5067401;28;46448;-78
2022/09/12 00:27:23;;;;;;;;;;;;;;;;;;5052201;28;45489;-77
2022/09/12 00:29:49;;;;;;;;;;;;;;;;;;5069135;28;44048;-78
2022/09/12 00:32:16;;;;;;;;;;;;;;;;;;5037869;28;46292;-78
2022/09/12 00:34:42;;;;;;;;;;;;;;;;;;5068594;28;42331;-78
2022/09/12 00:37:08;;;;;;;;;;;;;;;;;;5070138;28;47670;-78
2022/09/12 00:39:34;;;;;;;;;;;;;;;;;;5051830;28;46170;-78
2022/09/12 00:42:01;;;;;;;;;;;;;;;;;;5050399;28;45073;-78
2022/09/12 00:44:27;;;;;;;;;;;;;;;;;;5067751;28;47727;-78
2022/09/12 00:46:53;;;;;;;;;;;;;;;;;;5047279;28;47235;-78
2022/09/12 00:49:20;;;;;;;;;;;;;;;;;;5053378;28;43936;-78
2022/09/12 00:51:46;;;;;;;;;;;;;;;;;;5050093;28;46740;-77
2022/09/12 00:54:12;;;;;;;;;;;;;;;;;;5048771;28;44820;-78
2022/09/12 00:56:38;;;;;;;;;;;;;;;;;;5050522;28;46550;-78
2022/09/12 00:59:04;;;;;;;;;;;;;;;;;;5050414;28;45340;-78
2022/09/12 01:01:31;;;;;;;;;;;;;;;;;;5048141;28;45147;-78
2022/09/12 01:03:58;;;;;;;;;;;;;;;;;;5058083;28;46587;-78
2022/09/12 01:06:24;;;;;;;;;;;;;;;;;;5030862;28;46926;-78
2022/09/12 01:08:50;;;;;;;;;;;;;;;;;;5031290;28;44853;-78
2022/09/12 01:11:16;;;;;;;;;;;;;;;;;;5050579;28;47053;-78
2022/09/12 01:13:42;;;;;;;;;;;;;;;;;;5068222;28;45180;-77
2022/09/12 01:16:08;;;;;;;;;;;;;;;;;;5069230;28;47881;-78
2022/09/12 05:24:07;;;;;;;;;;;;;;;;;;5065798;28;20379;-77
2022/09/12 05:26:33;;;;;;;;;;;;;;;;;;5045629;28;47839;-78
2022/09/12 05:29:00;;;;;;;;;;;;;;;;;;5060150;28;44056;-79
2022/09/12 05:31:26;;;;;;;;;;;;;;;;;;5058732;28;44799;-79
2022/09/12 05:33:52;;;;;;;;;;;;;;;;;;5058738;28;45903;-79
2022/09/12 05:36:18;;;;;;;;;;;;;;;;;;5054311;28;42262;-79
2022/09/12 05:38:45;;;;;;;;;;;;;;;;;;5075202;28;45035;-80
2022/09/12 05:41:11;;;;;;;;;;;;;;;;;;5056263;28;47207;-79
2022/09/12 05:43:42;;;;;;;;;;;;;;;;;;5065305;28;44746;-78
2022/09/12 05:46:08;;;;;;;;;;;;;;;;;;5061750;28;45347;-78
2022/09/12 05:48:35;;;;;;;;;;;;;;;;;;5060492;28;42364;-78
2022/09/12 05:51:02;;;;;;;;;;;;;;;;;;5062101;28;47823;-78
2022/09/12 05:53:30;;;;;;;;;;;;;;;;;;5057943;28;45542;-78
2022/09/12 05:55:56;;;;;;;;;;;;;;;;;;5057294;28;44039;-79
2022/09/12 05:58:23;;;;;;;;;;;;;;;;;;5078654;28;47880;-78
2022/09/12 06:00:49;;;;;;;;;;;;;;;;;;5071389;28;48033;-78
2022/09/12 06:03:16;;;;;;;;;;;;;;;;;;5053549;28;43869;-78
2022/09/12 06:05:42;;;;;;;;;;;;;;;;;;5063351;28;45012;-79
2022/09/12 06:08:11;;;;;;;;;;;;;;;;;;5072883;28;45632;-78
2022/09/12 06:10:37;;;;;;;;;;;;;;;;;;5055069;28;46101;-78
2022/09/12 06:13:04;;;;;;;;;;;;;;;;;;5057246;28;45605;-78
2022/09/12 06:15:30;;;;;;;;;;;;;;;;;;5054856;28;44932;-78
2022/09/12 06:17:56;;;;;;;;;;;;;;;;;;5059188;28;46650;-79
2022/09/12 06:20:22;;;;;;;;;;;;;;;;;;5079562;28;45605;-78
2022/09/12 06:22:48;;;;;;;;;;;;;;;;;;5056721;28;42348;-79
2022/09/12 06:25:15;;;;;;;;;;;;;;;;;;5060935;28;46243;-81
2022/09/12 06:27:41;;;;;;;;;;;;;;;;;;5063832;28;45380;-79
2022/09/12 06:30:07;;;;;;;;;;;;;;;;;;5050205;28;45117;-81
2022/09/12 06:32:33;;;;;;;;;;;;;;;;;;5070588;28;44918;-78
2022/09/12 06:34:59;;;;;;;;;;;;;;;;;;5036602;28;42328;-81
2022/09/12 06:37:26;;;;;;;;;;;;;;;;;;5066117;28;47762;-82
2022/09/12 06:39:52;;;;;;;;;;;;;;;;;;5044576;28;46738;-81
2022/09/12 06:42:18;;;;;;;;;;;;;;;;;;5051239;28;42118;-81
2022/09/12 06:44:45;;;;;;;;;;;;;;;;;;5048289;28;47866;-82
2022/09/12 06:47:11;;;;;;;;;;;;;;;;;;5051755;28;45691;-80
2022/09/12 06:49:37;;;;;;;;;;;;;;;;;;5047802;28;44057;-80
2022/09/12 06:52:04;;;;;;;;;;;;;;;;;;5069148;28;46427;-80
2022/09/12 06:54:32;;;;;;;;;;;;;;;;;;5068234;28;44034;-79
2022/09/12 06:56:58;;;;;;;;;;;;;;;;;;5066123;28;45044;-78
2022/09/12 06:59:25;;;;;;;;;;;;;;;;;;5049143;28;48153;-80
2022/09/12 07:01:51;;;;;;;;;;;;;;;;;;5066139;28;43937;-77
2022/09/12 07:04:18;;;;;;;;;;;;;;;;;;5050880;28;46313;-76
2022/09/12 07:06:44;;;;;;;;;;;;;;;;;;5048699;28;46928;-79
2022/09/12 07:09:11;;;;;;;;;;;;;;;;;;5049086;28;47237;-74
2022/09/12 07:11:37;;;;;;;;;;;;;;;;;;5066032;28;47802;-76
2022/09/12 07:14:03;;;;;;;;;;;;;;;;;;5059031;28;47298;-77
2022/09/12 07:16:29;;;;;;;;;;;;;;;;;;5062757;28;46671;-77
2022/09/12 07:18:56;;;;;;;;;;;;;;;;;;5045686;28;47546;-79
2022/09/12 07:21:22;;;;;;;;;;;;;;;;;;5047426;28;43170;-83
2022/09/12 07:23:50;;;;;;;;;;;;;;;;;;5066611;28;47741;-85
2022/09/12 07:26:16;;;;;;;;;;;;;;;;;;5069655;28;47267;-83
2022/09/12 07:28:43;;;;;;;;;;;;;;;;;;5052927;28;43280;-81
2022/09/12 07:31:09;;;;;;;;;;;;;;;;;;5072034;28;46199;-81
2022/09/12 07:33:35;;;;;;;;;;;;;;;;;;5054646;28;47086;-81
2022/09/12 07:36:02;;;;;;;;;;;;;;;;;;5070528;28;44059;-80
2022/09/12 07:38:28;;;;;;;;;;;;;;;;;;5071755;28;46229;-81
2022/09/12 07:40:55;;;;;;;;;;;;;;;;;;5055561;28;44038;-80
2022/09/12 07:43:23;;;;;;;;;;;;;;;;;;5070463;28;47862;-83
2022/09/12 07:45:49;;;;;;;;;;;;;;;;;;5084683;28;47190;-82
2022/09/12 07:48:16;;;;;;;;;;;;;;;;;;5076335;28;42283;-85
2022/09/12 07:50:43;;;;;;;;;;;;;;;;;;5056218;28;44827;-83
2022/09/12 07:53:10;;;;;;;;;;;;;;;;;;5048386;28;46908;-83
2022/09/12 07:55:36;;;;;;;;;;;;;;;;;;5048799;28;43669;-82
2022/09/12 07:58:02;;;;;;;;;;;;;;;;;;5058601;28;46487;-83
2022/09/12 08:00:34;;;;;;;;;;;;;;;;;;5057837;28;43123;-83
2022/09/12 08:03:01;;;;;;;;;;;;;;;;;;5076601;28;47523;-83
2022/09/12 08:05:28;;;;;;;;;;;;;;;;;;5056043;28;46920;-81
2022/09/12 08:07:55;;;;;;;;;;;;;;;;;;5054668;28;44731;-82
2022/09/12 08:10:23;;;;;;;;;;;;;;;;;;5051379;28;47762;-83
2022/09/12 08:12:49;;;;;;;;;;;;;;;;;;5053922;28;46947;-82
2022/09/12 08:15:16;;;;;;;;;;;;;;;;;;5072733;28;43954;-82
2022/09/12 08:17:42;;;;;;;;;;;;;;;;;;5072925;28;46759;-83
2022/09/12 08:20:08;;;;;;;;;;;;;;;;;;5056452;28;43939;-81
2022/09/12 08:22:35;;;;;;;;;;;;;;;;;;5054052;28;46727;-78
2022/09/12 08:25:01;;;;;;;;;;;;;;;;;;5070153;28;48361;-81
2022/09/12 08:27:27;;;;;;;;;;;;;;;;;;5058820;28;43311;-82
2022/09/12 08:29:54;;;;;;;;;;;;;;;;;;5047488;28;47900;-80
2022/09/12 08:32:20;;;;;;;;;;;;;;;;;;5050767;28;45112;-79
2022/09/12 08:34:47;;;;;;;;;;;;;;;;;;5048491;28;44745;-79
2022/09/12 08:37:13;;;;;;;;;;;;;;;;;;5070578;28;46354;-79
2022/09/12 08:39:39;;;;;;;;;;;;;;;;;;5055964;28;46081;-81
2022/09/12 08:42:06;;;;;;;;;;;;;;;;;;5055628;28;47463;-77
2022/09/12 08:44:37;;;;;;;;;;;;;;;;;;5053665;28;47995;-81
2022/09/12 08:47:03;;;;;;;;;;;;;;;;;;5035441;28;44039;-77
2022/09/12 08:49:30;;;;;;;;;;;;;;;;;;5067453;28;47837;-78
2022/09/12 08:51:56;;;;;;;;;;;;;;;;;;5047273;28;48458;-79
2022/09/12 08:54:22;;;;;;;;;;;;;;;;;;5056234;28;42586;-81
2022/09/12 08:56:49;;;;;;;;;;;;;;;;;;5048684;28;44933;-82
2022/09/12 08:59:17;;;;;;;;;;;;;;;;;;5072724;28;47218;-81
2022/09/12 09:01:44;;;;;;;;;;;;;;;;;;5054117;28;45110;-82
2022/09/12 09:04:10;;;;;;;;;;;;;;;;;;5053645;28;44598;-83
2022/09/12 09:06:36;;;;;;;;;;;;;;;;;;5071477;28;45011;-82
2022/09/12 09:09:03;;;;;;;;;;;;;;;;;;5080816;28;45988;-80
2022/09/12 09:11:29;;;;;;;;;;;;;;;;;;5071680;28;48285;-81
2022/09/12 09:16:41;;;;;;;;;;;;;;;;;;5072033;28;45697;-79
2022/09/12 09:19:07;;;;;;;;;;;;;;;;;;5057871;28;48505;-81
2022/09/12 09:21:33;;;;;;;;;;;;;;;;;;5072885;28;42368;-81
2022/09/12 09:24:00;;;;;;;;;;;;;;;;;;5049768;28;46738;-81
2022/09/12 09:26:26;;;;;;;;;;;;;;;;;;5052206;28;45021;-82
2022/09/12 09:28:52;;;;;;;;;;;;;;;;;;5053304;28;45666;-80
2022/09/12 09:31:19;;;;;;;;;;;;;;;;;;5052231;28;48378;-81
2022/09/12 09:33:45;;;;;;;;;;;;;;;;;;5049428;28;43499;-80
2022/09/12 09:36:13;;;;;;;;;;;;;;;;;;5053349;28;46101;-80
2022/09/12 09:38:39;;;;;;;;;;;;;;;;;;5071345;28;47017;-81
2022/09/12 09:41:06;;;;;;;;;;;;;;;;;;5074149;28;43917;-83
2022/09/12 09:43:32;;;;;;;;;;;;;;;;;;5059679;28;46765;-83
2022/09/12 09:45:59;;;;;;;;;;;;;;;;;;5077751;28;32336;-83
2022/09/12 09:48:25;;;;;;;;;;;;;;;;;;5060696;28;47542;-83
2022/09/12 09:50:52;;;;;;;;;;;;;;;;;;5058206;28;46913;-85
2022/09/12 09:53:18;;;;;;;;;;;;;;;;;;5050231;28;44066;-82
2022/09/12 09:55:45;;;;;;;;;;;;;;;;;;5063558;28;47680;-82
2022/09/12 09:58:11;;;;;;;;;;;;;;;;;;5063643;28;47258;-83
2022/09/12 10:00:37;;;;;;;;;;;;;;;;;;5044687;28;44455;-83
2022/09/12 10:03:03;;;;;;;;;;;;;;;;;;5053750;28;47651;-80
2022/09/12 10:05:30;;;;;;;;;;;;;;;;;;5049626;28;47004;-82
2022/09/12 10:07:57;;;;;;;;;;;;;;;;;;5061355;28;46058;-81
2022/09/12 10:10:24;;;;;;;;;;;;;;;;;;5059671;28;47661;-83
2022/09/12 10:12:50;;;;;;;;;;;;;;;;;;5049657;28;45176;-85
2022/09/12 10:15:19;;;;;;;;;;;;;;;;;;5069312;28;46872;-79
2022/09/12 10:17:46;;;;;;;;;;;;;;;;;;5055207;28;45328;-77
2022/09/12 10:20:12;;;;;;;;;;;;;;;;;;5044707;28;45034;-80
2022/09/12 10:22:47;;;;;;;;;;;;;;;;;;5043591;28;45794;-83
2022/09/12 10:25:13;;;;;;;;;;;;;;;;;;5044853;28;44138;-81
2022/09/12 10:27:39;;;;;;;;;;;;;;;;;;5052171;28;44338;-80
2022/09/12 10:30:05;;;;;;;;;;;;;;;;;;5052489;28;45164;-82
2022/09/12 10:32:33;;;;;;;;;;;;;;;;;;5067768;28;43711;-82
2022/09/12 10:34:59;;;;;;;;;;;;;;;;;;5076090;28;44764;-81
2022/09/12 10:37:25;;;;;;;;;;;;;;;;;;5051360;28;48383;-81
2022/09/12 10:39:55;;;;;;;;;;;;;;;;;;5064119;28;44676;-81
2022/09/12 10:42:23;;;;;;;;;;;;;;;;;;5036864;28;46815;-81
2022/09/12 10:44:49;;;;;;;;;;;;;;;;;;5050207;28;47207;-81
2022/09/12 10:47:15;;;;;;;;;;;;;;;;;;5053002;28;43638;-81
2022/09/12 10:49:42;;;;;;;;;;;;;;;;;;5059489;28;47215;-81
2022/09/12 10:52:08;;;;;;;;;;;;;;;;;;5050085;28;45566;-81
2022/09/12 10:54:34;;;;;;;;;;;;;;;;;;5051292;28;46109;-82
2022/09/12 10:57:00;;;;;;;;;;;;;;;;;;5070133;28;46636;-81
2022/09/12 10:59:26;;;;;;;;;;;;;;;;;;5050430;28;45842;-82
2022/09/12 11:01:53;;;;;;;;;;;;;;;;;;5068663;28;47707;-82
2022/09/12 11:04:19;;;;;;;;;;;;;;;;;;5054547;28;46844;-82
2022/09/12 11:06:45;;;;;;;;;;;;;;;;;;5052245;28;43727;-82
2022/09/12 11:09:13;;;;;;;;;;;;;;;;;;5035229;28;45353;-82
2022/09/12 11:11:39;;;;;;;;;;;;;;;;;;5051885;28;48416;-83
2022/09/12 11:14:07;;;;;;;;;;;;;;;;;;5053119;28;48105;-82
2022/09/12 11:16:33;;;;;;;;;;;;;;;;;;5056191;28;45640;-83
2022/09/12 11:19:02;;;;;;;;;;;;;;;;;;5075616;28;41327;-83
2022/09/12 11:21:29;;;;;;;;;;;;;;;;;;5056256;28;48361;-82
2022/09/12 11:23:55;;;;;;;;;;;;;;;;;;5054599;28;45652;-82
2022/09/12 11:26:21;;;;;;;;;;;;;;;;;;5051718;28;44006;-83
2022/09/12 11:28:47;;;;;;;;;;;;;;;;;;5068665;28;45648;-82
2022/09/12 11:31:14;;;;;;;;;;;;;;;;;;5053805;28;45446;-83
2022/09/12 11:33:40;;;;;;;;;;;;;;;;;;5051259;28;44118;-82
2022/09/12 11:36:08;;;;;;;;;;;;;;;;;;5066438;28;46898;-81
2022/09/12 11:38:34;;;;;;;;;;;;;;;;;;5046186;28;45195;-81
2022/09/12 11:41:00;;;;;;;;;;;;;;;;;;5062315;28;47392;-77
2022/09/12 11:43:27;;;;;;;;;;;;;;;;;;5065002;28;48464;-82
2022/09/12 11:45:53;;;;;;;;;;;;;;;;;;5051385;28;42508;-82
2022/09/12 11:48:19;;;;;;;;;;;;;;;;;;5053335;28;46739;-81
2022/09/12 11:50:45;;;;;;;;;;;;;;;;;;5059339;28;48638;-80
2022/09/12 11:53:11;;;;;;;;;;;;;;;;;;5040176;28;45116;-80
2022/09/12 11:55:38;;;;;;;;;;;;;;;;;;5051968;28;45413;-81
2022/09/12 11:58:04;;;;;;;;;;;;;;;;;;5052599;28;44750;-80
2022/09/12 12:00:30;;;;;;;;;;;;;;;;;;5055108;28;46090;-82
2022/09/12 12:02:56;;;;;;;;;;;;;;;;;;5054509;28;46495;-81
2022/09/12 12:05:23;;;;;;;;;;;;;;;;;;5050049;28;44059;-80
2022/09/12 12:07:49;;;;;;;;;;;;;;;;;;5065128;28;47431;-82
2022/09/12 12:10:15;;;;;;;;;;;;;;;;;;5053284;28;45530;-81
2022/09/12 12:12:41;;;;;;;;;;;;;;;;;;5068341;28;44034;-81
2022/09/12 12:15:08;;;;;;;;;;;;;;;;;;5074123;28;46732;-81
2022/09/12 12:17:34;;;;;;;;;;;;;;;;;;5083355;28;43893;-82
2022/09/12 12:20:00;;;;;;;;;;;;;;;;;;5065389;28;44191;-81
2022/09/12 12:22:31;;;;;;;;;;;;;;;;;;5061527;28;48229;-82
2022/09/12 12:24:58;;;;;;;;;;;;;;;;;;5057820;28;43099;-82
2022/09/12 12:27:24;;;;;;;;;;;;;;;;;;5053268;28;45480;-82
2022/09/12 12:29:50;;;;;;;;;;;;;;;;;;5059361;28;48143;-82
2022/09/12 12:32:18;;;;;;;;;;;;;;;;;;5078717;28;42113;-82
2022/09/12 12:34:44;;;;;;;;;;;;;;;;;;5058902;28;46640;-82
2022/09/12 12:37:10;;;;;;;;;;;;;;;;;;5055247;28;45601;-83
2022/09/12 12:39:37;;;;;;;;;;;;;;;;;;5056607;28;47680;-79
2022/09/12 12:42:03;;;;;;;;;;;;;;;;;;5052092;28;46664;-80
2022/09/12 12:44:29;;;;;;;;;;;;;;;;;;5055938;28;43368;-80
2022/09/12 12:46:55;;;;;;;;;;;;;;;;;;5069311;28;45888;-81
2022/09/12 12:49:25;;;;;;;;;;;;;;;;;;5056413;28;44987;-81
2022/09/12 12:51:52;;;;;;;;;;;;;;;;;;5054553;28;42402;-82
2022/09/12 12:54:18;;;;;;;;;;;;;;;;;;5070370;28;46026;-81
2022/09/12 12:56:44;;;;;;;;;;;;;;;;;;5078088;28;47268;-81
2022/09/12 12:59:10;;;;;;;;;;;;;;;;;;5063413;28;41098;-81
2022/09/12 13:01:39;;;;;;;;;;;;;;;;;;5047338;28;47086;-82
2022/09/12 13:04:07;;;;;;;;;;;;;;;;;;5072732;28;45212;-80
2022/09/12 13:06:33;;;;;;;;;;;;;;;;;;5072473;28;47923;-81
2022/09/12 13:08:59;;;;;;;;;;;;;;;;;;5074733;28;47993;-83
2022/09/12 13:11:25;;;;;;;;;;;;;;;;;;5050856;28;46100;-81
2022/09/12 13:13:52;;;;;;;;;;;;;;;;;;5074060;28;44870;-79
2022/09/12 13:16:19;;;;;;;;;;;;;;;;;;5052741;28;47180;-81
2022/09/12 13:18:45;;;;;;;;;;;;;;;;;;5057107;28;43785;-81
2022/09/12 13:21:12;;;;;;;;;;;;;;;;;;5077067;28;46171;-80
2022/09/12 13:23:38;;;;;;;;;;;;;;;;;;5071110;28;43575;-80
2022/09/12 13:26:04;;;;;;;;;;;;;;;;;;5072265;28;44824;-80
2022/09/12 13:28:34;;;;;;;;;;;;;;;;;;5074243;28;45403;-80
2022/09/12 13:31:00;;;;;;;;;;;;;;;;;;5077370;28;43719;-80
2022/09/12 13:33:27;;;;;;;;;;;;;;;;;;5072693;28;46862;-80
2022/09/12 13:35:54;;;;;;;;;;;;;;;;;;5056030;28;48299;-80
2022/09/12 13:38:20;;;;;;;;;;;;;;;;;;5053092;28;45174;-81
2022/09/12 13:40:46;;;;;;;;;;;;;;;;;;5076990;28;44282;-79
2022/09/12 13:43:14;;;;;;;;;;;;;;;;;;5057366;28;47205;-79
2022/09/12 13:45:40;;;;;;;;;;;;;;;;;;5072128;28;46563;-82
2022/09/12 13:48:06;;;;;;;;;;;;;;;;;;5049563;28;47139;-82
2022/09/12 13:50:32;;;;;;;;;;;;;;;;;;5069437;28;43864;-82
2022/09/12 13:52:58;;;;;;;;;;;;;;;;;;5071954;28;46755;-81
2022/09/12 13:55:25;;;;;;;;;;;;;;;;;;5053392;28;46988;-81
2022/09/12 13:57:51;;;;;;;;;;;;;;;;;;5046881;28;43673;-81
2022/09/12 14:00:18;;;;;;;;;;;;;;;;;;5049633;28;46613;-78
2022/09/12 14:02:44;;;;;;;;;;;;;;;;;;5066154;28;47990;-79
2022/09/12 14:05:10;;;;;;;;;;;;;;;;;;5046207;28;47740;-80
2022/09/12 14:07:38;;;;;;;;;;;;;;;;;;5056429;28;48249;-83
2022/09/12 14:10:04;;;;;;;;;;;;;;;;;;5055026;28;43640;-81
2022/09/12 14:12:31;;;;;;;;;;;;;;;;;;5049977;28;46352;-81
2022/09/12 14:14:57;;;;;;;;;;;;;;;;;;5051644;28;46988;-80
2022/09/12 14:17:23;;;;;;;;;;;;;;;;;;5069980;28;43957;-81
2022/09/12 14:19:49;;;;;;;;;;;;;;;;;;5071088;28;47823;-83
2022/09/12 14:22:17;;;;;;;;;;;;;;;;;;5070285;28;46739;-81
2022/09/12 14:24:49;;;;;;;;;;;;;;;;;;5052837;28;35081;-79
2022/09/12 14:27:15;;;;;;;;;;;;;;;;;;5068044;28;47542;-80
2022/09/12 14:29:42;;;;;;;;;;;;;;;;;;5047428;28;45209;-79
2022/09/12 14:32:09;;;;;;;;;;;;;;;;;;5068511;28;46710;-79
2022/09/12 14:34:35;;;;;;;;;;;;;;;;;;5049213;28;47196;-80
2022/09/12 14:37:01;;;;;;;;;;;;;;;;;;5052595;28;44247;-82
2022/09/12 14:39:27;;;;;;;;;;;;;;;;;;5067977;28;46136;-80
2022/09/12 14:41:54;;;;;;;;;;;;;;;;;;5050013;28;45627;-81
2022/09/12 14:44:20;;;;;;;;;;;;;;;;;;5052520;28;45938;-82
2022/09/12 14:46:47;;;;;;;;;;;;;;;;;;5060137;28;44929;-82
2022/09/12 14:49:13;;;;;;;;;;;;;;;;;;5069966;28;45812;-81
2022/09/12 14:51:39;;;;;;;;;;;;;;;;;;5049932;28;44840;-81
2022/09/12 14:54:06;;;;;;;;;;;;;;;;;;5070917;28;47100;-81
2022/09/12 14:56:32;;;;;;;;;;;;;;;;;;5069330;28;42213;-82
2022/09/12 14:58:59;;;;;;;;;;;;;;;;;;5048753;28;46817;-80
2022/09/12 15:01:26;;;;;;;;;;;;;;;;;;5044160;28;46689;-76
2022/09/12 15:03:52;;;;;;;;;;;;;;;;;;5051280;28;43757;-77
2022/09/12 15:06:19;;;;;;;;;;;;;;;;;;5034211;28;45688;-78
2022/09/12 15:08:45;;;;;;;;;;;;;;;;;;5048134;28;47299;-81
2022/09/12 15:11:12;;;;;;;;;;;;;;;;;;5057238;28;43705;-79
2022/09/12 15:13:38;;;;;;;;;;;;;;;;;;5065654;28;48693;-80
2022/09/12 15:16:04;;;;;;;;;;;;;;;;;;5050139;28;43816;-75
2022/09/12 15:18:30;;;;;;;;;;;;;;;;;;5049240;28;47718;-80
2022/09/12 15:20:57;;;;;;;;;;;;;;;;;;5045671;28;48391;-79
2022/09/12 15:23:23;;;;;;;;;;;;;;;;;;5070818;28;41720;-78
2022/09/12 15:25:49;;;;;;;;;;;;;;;;;;5069593;28;46586;-79
2022/09/12 15:28:15;;;;;;;;;;;;;;;;;;5058086;28;46926;-79
2022/09/12 15:30:42;;;;;;;;;;;;;;;;;;5076016;28;41705;-80
2022/09/12 15:33:08;;;;;;;;;;;;;;;;;;5050634;28;47858;-79
2022/09/12 15:35:34;;;;;;;;;;;;;;;;;;5070675;28;45045;-79
2022/09/12 15:38:01;;;;;;;;;;;;;;;;;;5057430;28;45142;-77
2022/09/12 15:40:28;;;;;;;;;;;;;;;;;;5055310;28;48149;-77
2022/09/12 15:42:54;;;;;;;;;;;;;;;;;;5052495;28;44184;-77
2022/09/12 15:45:20;;;;;;;;;;;;;;;;;;5058272;28;46359;-78
2022/09/12 15:47:46;;;;;;;;;;;;;;;;;;5055627;28;45077;-78
2022/09/12 15:50:12;;;;;;;;;;;;;;;;;;5053848;28;42101;-77
2022/09/12 15:52:39;;;;;;;;;;;;;;;;;;5058563;28;46718;-78
2022/09/12 15:55:08;;;;;;;;;;;;;;;;;;5073891;28;44274;-80
2022/09/12 15:57:34;;;;;;;;;;;;;;;;;;5056645;28;44982;-80
2022/09/12 16:00:00;;;;;;;;;;;;;;;;;;5056449;28;47705;-79
2022/09/12 16:02:26;;;;;;;;;;;;;;;;;;5052165;28;46138;-80
2022/09/12 16:04:54;;;;;;;;;;;;;;;;;;5052051;28;44781;-78
2022/09/12 16:07:20;;;;;;;;;;;;;;;;;;5038738;28;47006;-80
2022/09/12 16:09:47;;;;;;;;;;;;;;;;;;5050381;28;41433;-79
2022/09/12 16:12:13;;;;;;;;;;;;;;;;;;5080488;28;46134;-80
2022/09/12 16:14:39;;;;;;;;;;;;;;;;;;5065013;28;44029;-79
2022/09/12 16:17:06;;;;;;;;;;;;;;;;;;5062931;28;45178;-79
2022/09/12 16:19:32;;;;;;;;;;;;;;;;;;5062577;28;47209;-80
2022/09/12 16:21:58;;;;;;;;;;;;;;;;;;5076768;28;43805;-79
2022/09/12 16:24:24;;;;;;;;;;;;;;;;;;5056369;28;45488;-79
2022/09/12 16:26:51;;;;;;;;;;;;;;;;;;5058555;28;47552;-79
2022/09/12 16:29:17;;;;;;;;;;;;;;;;;;5053089;28;45351;-80
2022/09/12 16:31:43;;;;;;;;;;;;;;;;;;5056220;28;44684;-79
2022/09/12 16:34:09;;;;;;;;;;;;;;;;;;5058320;28;47257;-79
2022/09/12 16:36:36;;;;;;;;;;;;;;;;;;5081389;28;47853;-79
2022/09/12 16:39:02;;;;;;;;;;;;;;;;;;5056464;28;46212;-79
2022/09/12 16:41:28;;;;;;;;;;;;;;;;;;5058101;28;42404;-79
2022/09/12 16:43:54;;;;;;;;;;;;;;;;;;5070726;28;44524;-80
2022/09/12 16:46:21;;;;;;;;;;;;;;;;;;5057959;28;47184;-78
2022/09/12 16:48:47;;;;;;;;;;;;;;;;;;5071488;28;44096;-80
2022/09/12 16:51:19;;;;;;;;;;;;;;;;;;5054154;28;44058;-79
2022/09/12 16:53:48;;;;;;;;;;;;;;;;;;5069253;28;48375;-80
2022/09/12 16:56:14;;;;;;;;;;;;;;;;;;5074961;28;45298;-79
2022/09/12 16:58:40;;;;;;;;;;;;;;;;;;5058380;28;46311;-80
2022/09/12 17:01:07;;;;;;;;;;;;;;;;;;5051790;28;42460;-80
2022/09/12 17:03:34;;;;;;;;;;;;;;;;;;5074250;28;41030;-80
2022/09/12 17:06:00;;;;;;;;;;;;;;;;;;5061766;28;47020;-80
2022/09/12 17:08:27;;;;;;;;;;;;;;;;;;5060726;28;43884;-80
2022/09/12 17:10:53;;;;;;;;;;;;;;;;;;5061036;28;46747;-79
2022/09/12 17:13:19;;;;;;;;;;;;;;;;;;5059733;28;48348;-80
2022/09/12 17:15:46;;;;;;;;;;;;;;;;;;5065693;28;45035;-79
2022/09/12 17:18:12;;;;;;;;;;;;;;;;;;5076872;28;45306;-80
2022/09/12 17:20:38;;;;;;;;;;;;;;;;;;5060306;28;44069;-79
2022/09/12 17:23:04;;;;;;;;;;;;;;;;;;5079457;28;44718;-78
2022/09/12 17:25:34;;;;;;;;;;;;;;;;;;5057667;28;48211;-79
2022/09/12 17:28:03;;;;;;;;;;;;;;;;;;5063895;28;44065;-80
2022/09/12 17:30:30;;;;;;;;;;;;;;;;;;5069110;28;47789;-79
2022/09/12 17:32:56;;;;;;;;;;;;;;;;;;5068463;28;47299;-78
2022/09/12 17:35:22;;;;;;;;;;;;;;;;;;5052657;28;44140;-80
2022/09/12 17:37:48;;;;;;;;;;;;;;;;;;5077411;28;47875;-79
2022/09/12 17:40:14;;;;;;;;;;;;;;;;;;5059534;28;46231;-79
2022/09/12 17:42:41;;;;;;;;;;;;;;;;;;5056544;28;46840;-79
2022/09/12 17:45:07;;;;;;;;;;;;;;;;;;5055826;28;48344;-80
2022/09/12 17:47:33;;;;;;;;;;;;;;;;;;5054597;28;41923;-79
2022/09/12 17:49:59;;;;;;;;;;;;;;;;;;5061663;28;46655;-79
2022/09/12 17:52:46;;;;;;;;;;;;;;;;;;5062069;28;19936;-78
2022/09/12 17:55:12;;;;;;;;;;;;;;;;;;5058035;28;43846;-80
2022/09/12 17:57:39;;;;;;;;;;;;;;;;;;5055523;28;46643;-79
2022/09/12 18:00:05;;;;;;;;;;;;;;;;;;5057415;28;47092;-79
2022/09/12 18:02:32;;;;;;;;;;;;;;;;;;5069330;28;43225;-79
2022/09/12 18:04:58;;;;;;;;;;;;;;;;;;5057104;28;47348;-79
2022/09/12 18:07:24;;;;;;;;;;;;;;;;;;5066763;28;42487;-79
2022/09/12 18:09:51;;;;;;;;;;;;;;;;;;5059303;28;46556;-78
2022/09/12 18:12:18;;;;;;;;;;;;;;;;;;5082777;28;47522;-79
2022/09/12 18:14:45;;;;;;;;;;;;;;;;;;5053168;28;45258;-79
2022/09/12 18:17:12;;;;;;;;;;;;;;;;;;5075962;28;46404;-78
2022/09/12 18:19:38;;;;;;;;;;;;;;;;;;5057849;28;48381;-77
2022/09/12 18:22:05;;;;;;;;;;;;;;;;;;5059311;28;42821;-80
2022/09/12 18:24:31;;;;;;;;;;;;;;;;;;5057033;28;47237;-79
2022/09/12 18:26:57;;;;;;;;;;;;;;;;;;5072428;28;44014;-79
2022/09/12 18:29:23;;;;;;;;;;;;;;;;;;5055176;28;46507;-80
2022/09/12 18:31:50;;;;;;;;;;;;;;;;;;5052997;28;45832;-79
2022/09/12 18:34:16;;;;;;;;;;;;;;;;;;5066856;28;43751;-78
2022/09/12 18:36:42;;;;;;;;;;;;;;;;;;5049331;28;45940;-79
2022/09/12 18:39:08;;;;;;;;;;;;;;;;;;5053932;28;45917;-79
2022/09/12 18:41:35;;;;;;;;;;;;;;;;;;5050988;28;43715;-78
2022/09/12 18:44:01;;;;;;;;;;;;;;;;;;5052994;28;44819;-79
2022/09/12 18:46:27;;;;;;;;;;;;;;;;;;5052662;28;42054;-78
2022/09/12 18:48:54;;;;;;;;;;;;;;;;;;5072848;28;46281;-79
2022/09/12 18:51:20;;;;;;;;;;;;;;;;;;5055062;28;49370;-79
2022/09/12 18:53:46;;;;;;;;;;;;;;;;;;5056498;28;44988;-79
2022/09/12 18:56:13;;;;;;;;;;;;;;;;;;5054588;28;48570;-79
2022/09/12 18:58:39;;;;;;;;;;;;;;;;;;5073291;28;46885;-78
2022/09/12 19:01:05;;;;;;;;;;;;;;;;;;5070751;28;43348;-78
2022/09/12 19:03:31;;;;;;;;;;;;;;;;;;5052757;28;46119;-78
2022/09/12 19:05:58;;;;;;;;;;;;;;;;;;5073495;28;48585;-79
2022/09/12 19:08:24;;;;;;;;;;;;;;;;;;5056122;28;48380;-78
2022/09/12 19:10:50;;;;;;;;;;;;;;;;;;5057126;28;47597;-79
2022/09/12 19:13:16;;;;;;;;;;;;;;;;;;5068916;28;45187;-80
2022/09/12 19:15:43;;;;;;;;;;;;;;;;;;5056462;28;43335;-79
2022/09/12 19:18:09;;;;;;;;;;;;;;;;;;5054384;28;45456;-79
2022/09/12 19:20:36;;;;;;;;;;;;;;;;;;5072745;28;44030;-79
2022/09/12 19:23:02;;;;;;;;;;;;;;;;;;5059644;28;46854;-78
2022/09/12 19:25:28;;;;;;;;;;;;;;;;;;5072532;28;46833;-79
2022/09/12 19:27:55;;;;;;;;;;;;;;;;;;5062023;28;43732;-79
2022/09/12 19:30:21;;;;;;;;;;;;;;;;;;5060293;28;48467;-79
2022/09/12 19:32:47;;;;;;;;;;;;;;;;;;5045907;28;44448;-79
2022/09/12 19:35:14;;;;;;;;;;;;;;;;;;5103046;28;46331;-78
2022/09/12 19:37:40;;;;;;;;;;;;;;;;;;5065888;28;44387;-78
2022/09/12 19:40:08;;;;;;;;;;;;;;;;;;5063227;28;42512;-79
2022/09/12 19:42:34;;;;;;;;;;;;;;;;;;5062101;28;46739;-78
2022/09/12 19:45:03;;;;;;;;;;;;;;;;;;5062101;28;47687;-78
2022/09/12 19:47:29;;;;;;;;;;;;;;;;;;5059466;28;44071;-78
2022/09/12 19:49:56;;;;;;;;;;;;;;;;;;5080571;28;46664;-78
2022/09/12 19:52:22;;;;;;;;;;;;;;;;;;5063241;28;44027;-79
2022/09/12 19:54:48;;;;;;;;;;;;;;;;;;5062135;28;49113;-78
2022/09/12 19:57:14;;;;;;;;;;;;;;;;;;5062797;28;43148;-78
2022/09/12 19:59:41;;;;;;;;;;;;;;;;;;5061739;28;42599;-78
2022/09/12 20:02:07;;;;;;;;;;;;;;;;;;5061467;28;48874;-79
2022/09/12 20:04:34;;;;;;;;;;;;;;;;;;5062532;28;47472;-79
2022/09/12 20:07:01;;;;;;;;;;;;;;;;;;5080932;28;43438;-78
2022/09/12 20:09:27;;;;;;;;;;;;;;;;;;5061358;28;47079;-79
2022/09/12 20:11:53;;;;;;;;;;;;;;;;;;5061567;28;34237;-78
2022/09/12 20:14:21;;;;;;;;;;;;;;;;;;5081125;28;46746;-79
2022/09/12 20:16:47;;;;;;;;;;;;;;;;;;5063729;28;46108;-79
2022/09/12 20:19:13;;;;;;;;;;;;;;;;;;5063272;28;43390;-79
2022/09/12 20:21:39;;;;;;;;;;;;;;;;;;5063016;28;47667;-78
2022/09/12 20:24:06;;;;;;;;;;;;;;;;;;5044140;28;46205;-79
2022/09/12 20:26:32;;;;;;;;;;;;;;;;;;5043346;28;41526;-78
2022/09/12 20:28:58;;;;;;;;;;;;;;;;;;5051362;28;46645;-79
2022/09/12 20:31:24;;;;;;;;;;;;;;;;;;5060830;28;45816;-79
2022/09/12 20:33:51;;;;;;;;;;;;;;;;;;5049999;28;47573;-79
2022/09/12 20:36:17;;;;;;;;;;;;;;;;;;5058613;28;46475;-78
2022/09/12 20:38:43;;;;;;;;;;;;;;;;;;5072824;28;43600;-78
2022/09/12 20:41:10;;;;;;;;;;;;;;;;;;5058295;28;44610;-78
2022/09/12 20:43:37;;;;;;;;;;;;;;;;;;5059854;28;47001;-78
2022/09/12 20:46:03;;;;;;;;;;;;;;;;;;5075310;28;42860;-78
2022/09/12 20:48:29;;;;;;;;;;;;;;;;;;5076870;28;45634;-78